sensor_id;sensor_type;location;lat;lon;timestamp;P1;durP1;ratioP1;P2;durP2;ratioP2
1370;SDS011;14306;49.942;11.570;2023-11-21T00:00:40;8.63;;;2.40;;
1370;SDS011;14306;49.942;11.570;2023-11-21T00:03:08;3.83;;;2.03;;
1370;SDS011;14306;49.942;11.570;2023-11-21T00:05:38;6.10;;;2.80;;
1370;SDS011;14306;49.942;11.570;2023-11-21T00:08:07;7.87;;;2.63;;
1370;SDS011;14306;49.942;11.570;2023-11-21T00:10:36;4.33;;;1.90;;
1370;SDS011;14306;49.942;11.570;2023-11-21T00:13:07;6.63;;;2.10;;
1370;SDS011;14306;49.942;11.570;2023-11-21T00:15:35;4.03;;;2.03;;
1370;SDS011;14306;49.942;11.570;2023-11-21T00:18:03;5.33;;;2.33;;
1370;SDS011;14306;49.942;11.570;2023-11-21T00:20:31;7.60;;;1.60;;
1370;SDS011;14306;49.942;11.570;2023-11-21T00:22:59;6.57;;;2.03;;
1370;SDS011;14306;49.942;11.570;2023-11-21T00:25:29;6.20;;;2.00;;
1370;SDS011;14306;49.942;11.570;2023-11-21T00:27:57;3.23;;;1.20;;
1370;SDS011;14306;49.942;11.570;2023-11-21T00:30:29;3.73;;;1.60;;
1370;SDS011;14306;49.942;11.570;2023-11-21T00:32:58;3.97;;;1.80;;
1370;SDS011;14306;49.942;11.570;2023-11-21T00:35:26;9.33;;;2.17;;
1370;SDS011;14306;49.942;11.570;2023-11-21T00:37:55;7.13;;;1.90;;
1370;SDS011;14306;49.942;11.570;2023-11-21T00:40:24;7.83;;;1.93;;
1370;SDS011;14306;49.942;11.570;2023-11-21T00:42:52;3.77;;;1.20;;
1370;SDS011;14306;49.942;11.570;2023-11-21T00:45:20;6.83;;;1.70;;
1370;SDS011;14306;49.942;11.570;2023-11-21T00:47:49;5.23;;;1.30;;
1370;SDS011;14306;49.942;11.570;2023-11-21T00:50:17;4.70;;;1.40;;
1370;SDS011;14306;49.942;11.570;2023-11-21T00:52:46;3.57;;;1.70;;
1370;SDS011;14306;49.942;11.570;2023-11-21T00:55:14;5.60;;;1.50;;
1370;SDS011;14306;49.942;11.570;2023-11-21T00:57:44;3.87;;;2.07;;
1370;SDS011;14306;49.942;11.570;2023-11-21T01:00:13;3.43;;;1.73;;
1370;SDS011;14306;49.942;11.570;2023-11-21T01:02:43;8.90;;;2.10;;
1370;SDS011;14306;49.942;11.570;2023-11-21T01:05:13;8.37;;;1.53;;
1370;SDS011;14306;49.942;11.570;2023-11-21T01:07:42;2.17;;;1.33;;
1370;SDS011;14306;49.942;11.570;2023-11-21T01:10:10;1.57;;;1.40;;
1370;SDS011;14306;49.942;11.570;2023-11-21T01:12:38;4.20;;;1.73;;
1370;SDS011;14306;49.942;11.570;2023-11-21T01:15:07;6.03;;;1.63;;
1370;SDS011;14306;49.942;11.570;2023-11-21T01:17:35;8.00;;;1.97;;
1370;SDS011;14306;49.942;11.570;2023-11-21T01:20:05;5.80;;;1.80;;
1370;SDS011;14306;49.942;11.570;2023-11-21T01:22:41;8.53;;;1.87;;
1370;SDS011;14306;49.942;11.570;2023-11-21T01:25:09;4.30;;;1.40;;
1370;SDS011;14306;49.942;11.570;2023-11-21T01:27:38;2.97;;;1.50;;
1370;SDS011;14306;49.942;11.570;2023-11-21T01:30:06;6.47;;;1.77;;
1370;SDS011;14306;49.942;11.570;2023-11-21T01:32:37;6.80;;;1.80;;
1370;SDS011;14306;49.942;11.570;2023-11-21T01:35:08;5.80;;;1.40;;
1370;SDS011;14306;49.942;11.570;2023-11-21T01:37:37;8.03;;;1.93;;
1370;SDS011;14306;49.942;11.570;2023-11-21T01:40:08;2.57;;;1.50;;
1370;SDS011;14306;49.942;11.570;2023-11-21T01:42:41;4.63;;;1.40;;
1370;SDS011;14306;49.942;11.570;2023-11-21T01:45:10;5.47;;;1.77;;
1370;SDS011;14306;49.942;11.570;2023-11-21T01:47:39;2.77;;;1.60;;
1370;SDS011;14306;49.942;11.570;2023-11-21T01:50:09;2.40;;;1.53;;
1370;SDS011;14306;49.942;11.570;2023-11-21T01:52:42;3.50;;;1.53;;
1370;SDS011;14306;49.942;11.570;2023-11-21T01:55:14;3.27;;;1.70;;
1370;SDS011;14306;49.942;11.570;2023-11-21T01:57:54;2.43;;;1.67;;
1370;SDS011;14306;49.942;11.570;2023-11-21T02:00:23;5.00;;;2.37;;
1370;SDS011;14306;49.942;11.570;2023-11-21T02:02:52;1.50;;;1.40;;
1370;SDS011;14306;49.942;11.570;2023-11-21T02:05:20;1.33;;;1.10;;
1370;SDS011;14306;49.942;11.570;2023-11-21T02:07:49;1.50;;;1.40;;
1370;SDS011;14306;49.942;11.570;2023-11-21T02:10:20;3.00;;;2.53;;
1370;SDS011;14306;49.942;11.570;2023-11-21T02:12:50;3.90;;;1.40;;
1370;SDS011;14306;49.942;11.570;2023-11-21T02:15:19;1.70;;;1.60;;
1370;SDS011;14306;49.942;11.570;2023-11-21T02:17:47;1.53;;;1.30;;
1370;SDS011;14306;49.942;11.570;2023-11-21T02:20:19;3.40;;;1.90;;
1370;SDS011;14306;49.942;11.570;2023-11-21T02:22:52;5.70;;;1.87;;
1370;SDS011;14306;49.942;11.570;2023-11-21T02:25:25;2.60;;;1.80;;
1370;SDS011;14306;49.942;11.570;2023-11-21T02:27:55;6.23;;;2.90;;
1370;SDS011;14306;49.942;11.570;2023-11-21T02:30:24;5.20;;;1.77;;
1370;SDS011;14306;49.942;11.570;2023-11-21T02:32:54;5.00;;;2.10;;
1370;SDS011;14306;49.942;11.570;2023-11-21T02:35:24;8.67;;;2.97;;
1370;SDS011;14306;49.942;11.570;2023-11-21T02:37:54;5.73;;;2.10;;
1370;SDS011;14306;49.942;11.570;2023-11-21T02:40:22;4.23;;;1.60;;
1370;SDS011;14306;49.942;11.570;2023-11-21T02:42:53;2.47;;;2.10;;
1370;SDS011;14306;49.942;11.570;2023-11-21T02:45:24;2.17;;;1.60;;
1370;SDS011;14306;49.942;11.570;2023-11-21T02:47:52;1.60;;;1.50;;
1370;SDS011;14306;49.942;11.570;2023-11-21T02:50:24;3.40;;;1.87;;
1370;SDS011;14306;49.942;11.570;2023-11-21T02:52:55;3.53;;;1.60;;
1370;SDS011;14306;49.942;11.570;2023-11-21T02:55:26;2.03;;;1.50;;
1370;SDS011;14306;49.942;11.570;2023-11-21T02:57:55;3.37;;;1.50;;
1370;SDS011;14306;49.942;11.570;2023-11-21T03:00:24;2.33;;;1.43;;
1370;SDS011;14306;49.942;11.570;2023-11-21T03:02:52;1.70;;;1.40;;
1370;SDS011;14306;49.942;11.570;2023-11-21T03:05:22;5.90;;;1.80;;
1370;SDS011;14306;49.942;11.570;2023-11-21T03:07:50;4.63;;;1.83;;
1370;SDS011;14306;49.942;11.570;2023-11-21T03:10:19;5.53;;;2.20;;
1370;SDS011;14306;49.942;11.570;2023-11-21T03:12:48;5.13;;;2.27;;
1370;SDS011;14306;49.942;11.570;2023-11-21T03:15:16;1.63;;;1.50;;
1370;SDS011;14306;49.942;11.570;2023-11-21T03:17:44;2.83;;;1.70;;
1370;SDS011;14306;49.942;11.570;2023-11-21T03:20:12;2.43;;;1.70;;
1370;SDS011;14306;49.942;11.570;2023-11-21T03:22:42;3.63;;;1.80;;
1370;SDS011;14306;49.942;11.570;2023-11-21T03:25:11;6.90;;;1.80;;
1370;SDS011;14306;49.942;11.570;2023-11-21T03:27:41;1.93;;;1.60;;
1370;SDS011;14306;49.942;11.570;2023-11-21T03:30:11;4.90;;;2.40;;
1370;SDS011;14306;49.942;11.570;2023-11-21T03:32:39;5.23;;;1.90;;
1370;SDS011;14306;49.942;11.570;2023-11-21T03:35:07;2.60;;;1.70;;
1370;SDS011;14306;49.942;11.570;2023-11-21T03:37:36;1.67;;;1.53;;
1370;SDS011;14306;49.942;11.570;2023-11-21T03:40:06;2.97;;;2.03;;
1370;SDS011;14306;49.942;11.570;2023-11-21T03:42:35;3.47;;;1.93;;
1370;SDS011;14306;49.942;11.570;2023-11-21T03:45:05;1.70;;;1.60;;
1370;SDS011;14306;49.942;11.570;2023-11-21T03:47:35;1.93;;;1.50;;
1370;SDS011;14306;49.942;11.570;2023-11-21T03:50:03;8.03;;;1.97;;
1370;SDS011;14306;49.942;11.570;2023-11-21T03:52:32;2.00;;;1.80;;
1370;SDS011;14306;49.942;11.570;2023-11-21T03:55:00;6.80;;;2.13;;
1370;SDS011;14306;49.942;11.570;2023-11-21T03:57:28;6.63;;;2.27;;
1370;SDS011;14306;49.942;11.570;2023-11-21T03:59:56;2.73;;;2.40;;
1370;SDS011;14306;49.942;11.570;2023-11-21T04:02:26;3.23;;;2.10;;
1370;SDS011;14306;49.942;11.570;2023-11-21T04:04:54;4.87;;;2.13;;
1370;SDS011;14306;49.942;11.570;2023-11-21T04:07:23;3.90;;;2.00;;
1370;SDS011;14306;49.942;11.570;2023-11-21T04:09:51;4.13;;;1.90;;
1370;SDS011;14306;49.942;11.570;2023-11-21T04:12:19;4.37;;;2.37;;
1370;SDS011;14306;49.942;11.570;2023-11-21T04:14:47;4.50;;;1.93;;
1370;SDS011;14306;49.942;11.570;2023-11-21T04:17:17;6.13;;;3.10;;
1370;SDS011;14306;49.942;11.570;2023-11-21T04:19:47;2.77;;;2.17;;
1370;SDS011;14306;49.942;11.570;2023-11-21T04:22:15;8.73;;;2.60;;
1370;SDS011;14306;49.942;11.570;2023-11-21T04:24:43;8.30;;;2.60;;
1370;SDS011;14306;49.942;11.570;2023-11-21T04:27:11;4.67;;;2.70;;
1370;SDS011;14306;49.942;11.570;2023-11-21T04:29:39;2.83;;;2.33;;
1370;SDS011;14306;49.942;11.570;2023-11-21T04:32:08;6.80;;;2.70;;
1370;SDS011;14306;49.942;11.570;2023-11-21T04:34:35;3.97;;;2.90;;
1370;SDS011;14306;49.942;11.570;2023-11-21T04:37:05;4.10;;;2.37;;
1370;SDS011;14306;49.942;11.570;2023-11-21T04:39:33;4.83;;;2.67;;
1370;SDS011;14306;49.942;11.570;2023-11-21T04:42:01;5.73;;;3.23;;
1370;SDS011;14306;49.942;11.570;2023-11-21T04:44:29;4.53;;;3.30;;
1370;SDS011;14306;49.942;11.570;2023-11-21T04:46:57;3.27;;;2.30;;
1370;SDS011;14306;49.942;11.570;2023-11-21T04:49:25;4.73;;;2.73;;
1370;SDS011;14306;49.942;11.570;2023-11-21T04:51:53;3.63;;;2.10;;
1370;SDS011;14306;49.942;11.570;2023-11-21T04:54:23;3.90;;;2.20;;
1370;SDS011;14306;49.942;11.570;2023-11-21T04:56:54;3.53;;;2.87;;
1370;SDS011;14306;49.942;11.570;2023-11-21T04:59:22;6.43;;;4.27;;
1370;SDS011;14306;49.942;11.570;2023-11-21T05:01:51;6.17;;;4.17;;
1370;SDS011;14306;49.942;11.570;2023-11-21T05:04:20;7.67;;;3.57;;
1370;SDS011;14306;49.942;11.570;2023-11-21T05:06:49;6.20;;;3.83;;
1370;SDS011;14306;49.942;11.570;2023-11-21T05:09:17;10.17;;;3.30;;
1370;SDS011;14306;49.942;11.570;2023-11-21T05:11:46;7.13;;;4.07;;
1370;SDS011;14306;49.942;11.570;2023-11-21T05:14:14;6.30;;;3.50;;
1370;SDS011;14306;49.942;11.570;2023-11-21T05:16:42;5.87;;;3.63;;
1370;SDS011;14306;49.942;11.570;2023-11-21T05:19:10;8.07;;;4.67;;
1370;SDS011;14306;49.942;11.570;2023-11-21T05:21:39;9.77;;;6.07;;
1370;SDS011;14306;49.942;11.570;2023-11-21T05:24:07;7.77;;;5.30;;
1370;SDS011;14306;49.942;11.570;2023-11-21T05:26:35;6.37;;;5.13;;
1370;SDS011;14306;49.942;11.570;2023-11-21T05:29:05;11.43;;;4.63;;
1370;SDS011;14306;49.942;11.570;2023-11-21T05:31:33;9.27;;;5.30;;
1370;SDS011;14306;49.942;11.570;2023-11-21T05:34:01;8.00;;;4.80;;
1370;SDS011;14306;49.942;11.570;2023-11-21T05:36:29;8.73;;;5.00;;
1370;SDS011;14306;49.942;11.570;2023-11-21T05:38:57;14.27;;;5.70;;
1370;SDS011;14306;49.942;11.570;2023-11-21T05:41:24;19.13;;;5.90;;
1370;SDS011;14306;49.942;11.570;2023-11-21T05:43:52;11.07;;;6.70;;
1370;SDS011;14306;49.942;11.570;2023-11-21T05:46:22;7.43;;;4.90;;
1370;SDS011;14306;49.942;11.570;2023-11-21T05:48:50;9.37;;;4.93;;
1370;SDS011;14306;49.942;11.570;2023-11-21T05:51:18;8.63;;;5.40;;
1370;SDS011;14306;49.942;11.570;2023-11-21T05:53:46;11.37;;;5.93;;
1370;SDS011;14306;49.942;11.570;2023-11-21T05:56:14;9.60;;;6.20;;
1370;SDS011;14306;49.942;11.570;2023-11-21T05:58:42;13.20;;;6.63;;
1370;SDS011;14306;49.942;11.570;2023-11-21T06:01:10;8.50;;;5.90;;
1370;SDS011;14306;49.942;11.570;2023-11-21T06:03:40;15.57;;;7.37;;
1370;SDS011;14306;49.942;11.570;2023-11-21T06:06:09;13.30;;;7.57;;
1370;SDS011;14306;49.942;11.570;2023-11-21T06:08:37;23.63;;;9.73;;
1370;SDS011;14306;49.942;11.570;2023-11-21T06:11:05;13.07;;;7.47;;
1370;SDS011;14306;49.942;11.570;2023-11-21T06:13:33;13.90;;;7.53;;
1370;SDS011;14306;49.942;11.570;2023-11-21T06:16:01;11.07;;;6.60;;
1370;SDS011;14306;49.942;11.570;2023-11-21T06:18:28;13.73;;;8.10;;
1370;SDS011;14306;49.942;11.570;2023-11-21T06:20:58;13.43;;;7.60;;
1370;SDS011;14306;49.942;11.570;2023-11-21T06:23:27;14.40;;;9.00;;
1370;SDS011;14306;49.942;11.570;2023-11-21T06:25:54;15.13;;;7.60;;
1370;SDS011;14306;49.942;11.570;2023-11-21T06:28:24;14.90;;;7.37;;
1370;SDS011;14306;49.942;11.570;2023-11-21T06:30:52;15.90;;;9.17;;
1370;SDS011;14306;49.942;11.570;2023-11-21T06:33:21;17.90;;;8.03;;
1370;SDS011;14306;49.942;11.570;2023-11-21T06:35:49;13.77;;;7.73;;
1370;SDS011;14306;49.942;11.570;2023-11-21T06:38:19;18.27;;;8.60;;
1370;SDS011;14306;49.942;11.570;2023-11-21T06:40:47;23.23;;;10.30;;
1370;SDS011;14306;49.942;11.570;2023-11-21T06:43:16;9.73;;;6.90;;
1370;SDS011;14306;49.942;11.570;2023-11-21T06:45:44;14.30;;;6.90;;
1370;SDS011;14306;49.942;11.570;2023-11-21T06:48:12;12.13;;;7.50;;
1370;SDS011;14306;49.942;11.570;2023-11-21T06:50:41;11.00;;;6.40;;
1370;SDS011;14306;49.942;11.570;2023-11-21T06:53:09;14.10;;;9.30;;
1370;SDS011;14306;49.942;11.570;2023-11-21T06:55:38;12.37;;;8.13;;
1370;SDS011;14306;49.942;11.570;2023-11-21T06:58:07;13.13;;;8.10;;
1370;SDS011;14306;49.942;11.570;2023-11-21T07:00:35;16.97;;;9.50;;
1370;SDS011;14306;49.942;11.570;2023-11-21T07:03:03;18.33;;;9.93;;
1370;SDS011;14306;49.942;11.570;2023-11-21T07:05:32;15.13;;;9.67;;
1370;SDS011;14306;49.942;11.570;2023-11-21T07:08:00;14.80;;;8.43;;
1370;SDS011;14306;49.942;11.570;2023-11-21T07:10:31;15.53;;;9.00;;
1370;SDS011;14306;49.942;11.570;2023-11-21T07:13:01;11.37;;;7.20;;
1370;SDS011;14306;49.942;11.570;2023-11-21T07:15:29;18.07;;;8.00;;
1370;SDS011;14306;49.942;11.570;2023-11-21T07:17:57;10.73;;;7.30;;
1370;SDS011;14306;49.942;11.570;2023-11-21T07:20:25;9.47;;;6.87;;
1370;SDS011;14306;49.942;11.570;2023-11-21T07:22:54;16.10;;;7.50;;
1370;SDS011;14306;49.942;11.570;2023-11-21T07:25:22;12.83;;;7.53;;
1370;SDS011;14306;49.942;11.570;2023-11-21T07:27:50;14.90;;;7.23;;
1370;SDS011;14306;49.942;11.570;2023-11-21T07:30:20;9.57;;;6.20;;
1370;SDS011;14306;49.942;11.570;2023-11-21T07:32:49;13.57;;;7.43;;
1370;SDS011;14306;49.942;11.570;2023-11-21T07:35:17;12.10;;;6.80;;
1370;SDS011;14306;49.942;11.570;2023-11-21T07:37:46;9.50;;;6.07;;
1370;SDS011;14306;49.942;11.570;2023-11-21T07:40:15;12.03;;;7.03;;
1370;SDS011;14306;49.942;11.570;2023-11-21T07:42:43;14.70;;;7.37;;
1370;SDS011;14306;49.942;11.570;2023-11-21T07:45:11;12.17;;;6.53;;
1370;SDS011;14306;49.942;11.570;2023-11-21T07:47:41;11.67;;;7.70;;
1370;SDS011;14306;49.942;11.570;2023-11-21T07:50:10;12.80;;;6.57;;
1370;SDS011;14306;49.942;11.570;2023-11-21T07:52:40;13.43;;;7.93;;
1370;SDS011;14306;49.942;11.570;2023-11-21T07:55:08;13.57;;;6.80;;
1370;SDS011;14306;49.942;11.570;2023-11-21T07:57:37;14.90;;;7.27;;
1370;SDS011;14306;49.942;11.570;2023-11-21T08:00:06;12.53;;;8.77;;
1370;SDS011;14306;49.942;11.570;2023-11-21T08:02:38;11.97;;;6.90;;
1370;SDS011;14306;49.942;11.570;2023-11-21T08:05:11;13.60;;;7.60;;
1370;SDS011;14306;49.942;11.570;2023-11-21T08:07:50;14.23;;;7.60;;
1370;SDS011;14306;49.942;11.570;2023-11-21T08:10:19;14.73;;;7.80;;
1370;SDS011;14306;49.942;11.570;2023-11-21T08:12:48;14.43;;;7.47;;
1370;SDS011;14306;49.942;11.570;2023-11-21T08:15:17;11.20;;;6.57;;
1370;SDS011;14306;49.942;11.570;2023-11-21T08:17:46;15.63;;;6.80;;
1370;SDS011;14306;49.942;11.570;2023-11-21T08:20:16;16.33;;;8.80;;
1370;SDS011;14306;49.942;11.570;2023-11-21T08:22:45;11.00;;;7.80;;
1370;SDS011;14306;49.942;11.570;2023-11-21T08:25:14;12.20;;;7.23;;
1370;SDS011;14306;49.942;11.570;2023-11-21T08:27:44;8.40;;;5.00;;
1370;SDS011;14306;49.942;11.570;2023-11-21T08:30:12;7.97;;;5.67;;
1370;SDS011;14306;49.942;11.570;2023-11-21T08:32:43;10.10;;;6.10;;
1370;SDS011;14306;49.942;11.570;2023-11-21T08:35:11;10.07;;;4.87;;
1370;SDS011;14306;49.942;11.570;2023-11-21T08:37:41;7.50;;;4.80;;
1370;SDS011;14306;49.942;11.570;2023-11-21T08:40:10;8.40;;;4.77;;
1370;SDS011;14306;49.942;11.570;2023-11-21T08:42:43;10.63;;;5.70;;
1370;SDS011;14306;49.942;11.570;2023-11-21T08:45:12;10.13;;;4.73;;
1370;SDS011;14306;49.942;11.570;2023-11-21T08:47:40;5.53;;;3.83;;
1370;SDS011;14306;49.942;11.570;2023-11-21T08:50:10;6.03;;;4.47;;
1370;SDS011;14306;49.942;11.570;2023-11-21T08:52:39;5.83;;;3.83;;
1370;SDS011;14306;49.942;11.570;2023-11-21T08:55:10;6.37;;;5.30;;
1370;SDS011;14306;49.942;11.570;2023-11-21T08:57:39;8.43;;;5.40;;
1370;SDS011;14306;49.942;11.570;2023-11-21T09:00:08;3.90;;;2.90;;
1370;SDS011;14306;49.942;11.570;2023-11-21T09:02:38;5.00;;;3.57;;
1370;SDS011;14306;49.942;11.570;2023-11-21T09:05:09;5.07;;;3.80;;
1370;SDS011;14306;49.942;11.570;2023-11-21T09:07:38;10.20;;;4.00;;
1370;SDS011;14306;49.942;11.570;2023-11-21T09:10:09;5.60;;;3.83;;
1370;SDS011;14306;49.942;11.570;2023-11-21T09:12:38;5.40;;;3.67;;
1370;SDS011;14306;49.942;11.570;2023-11-21T09:15:07;7.00;;;4.47;;
1370;SDS011;14306;49.942;11.570;2023-11-21T09:17:38;4.27;;;3.87;;
1370;SDS011;14306;49.942;11.570;2023-11-21T09:20:07;5.20;;;3.70;;
1370;SDS011;14306;49.942;11.570;2023-11-21T09:22:36;6.13;;;4.23;;
1370;SDS011;14306;49.942;11.570;2023-11-21T09:25:06;6.23;;;4.60;;
1370;SDS011;14306;49.942;11.570;2023-11-21T09:27:36;9.60;;;3.53;;
1370;SDS011;14306;49.942;11.570;2023-11-21T09:30:05;4.00;;;2.83;;
1370;SDS011;14306;49.942;11.570;2023-11-21T09:32:37;7.47;;;3.80;;
1370;SDS011;14306;49.942;11.570;2023-11-21T09:35:07;6.43;;;3.20;;
1370;SDS011;14306;49.942;11.570;2023-11-21T09:37:36;3.57;;;2.77;;
1370;SDS011;14306;49.942;11.570;2023-11-21T09:40:06;4.37;;;3.97;;
1370;SDS011;14306;49.942;11.570;2023-11-21T09:42:43;4.27;;;2.90;;
1370;SDS011;14306;49.942;11.570;2023-11-21T09:45:18;4.87;;;3.40;;
1370;SDS011;14306;49.942;11.570;2023-11-21T09:47:52;5.37;;;2.93;;
1370;SDS011;14306;49.942;11.570;2023-11-21T09:50:22;5.07;;;3.50;;
1370;SDS011;14306;49.942;11.570;2023-11-21T09:52:57;3.23;;;2.93;;
1370;SDS011;14306;49.942;11.570;2023-11-21T09:55:37;6.93;;;3.03;;
1370;SDS011;14306;49.942;11.570;2023-11-21T09:58:08;2.87;;;2.40;;
1370;SDS011;14306;49.942;11.570;2023-11-21T10:00:40;3.13;;;2.37;;
1370;SDS011;14306;49.942;11.570;2023-11-21T10:03:08;3.27;;;2.97;;
1370;SDS011;14306;49.942;11.570;2023-11-21T10:05:37;2.33;;;2.13;;
1370;SDS011;14306;49.942;11.570;2023-11-21T10:08:07;1.80;;;1.70;;
1370;SDS011;14306;49.942;11.570;2023-11-21T10:10:37;3.10;;;2.40;;
1370;SDS011;14306;49.942;11.570;2023-11-21T10:13:09;2.80;;;2.07;;
1370;SDS011;14306;49.942;11.570;2023-11-21T10:15:43;1.80;;;1.40;;
1370;SDS011;14306;49.942;11.570;2023-11-21T10:18:15;2.60;;;2.40;;
1370;SDS011;14306;49.942;11.570;2023-11-21T10:20:45;1.60;;;1.50;;
1370;SDS011;14306;49.942;11.570;2023-11-21T10:23:20;2.00;;;1.80;;
1370;SDS011;14306;49.942;11.570;2023-11-21T10:25:50;3.40;;;2.00;;
1370;SDS011;14306;49.942;11.570;2023-11-21T10:28:21;5.07;;;2.23;;
1370;SDS011;14306;49.942;11.570;2023-11-21T10:30:49;4.60;;;2.63;;
1370;SDS011;14306;49.942;11.570;2023-11-21T10:33:21;9.20;;;1.90;;
1370;SDS011;14306;49.942;11.570;2023-11-21T10:35:55;2.90;;;2.07;;
1370;SDS011;14306;49.942;11.570;2023-11-21T10:38:24;2.50;;;2.30;;
1370;SDS011;14306;49.942;11.570;2023-11-21T10:40:53;3.30;;;3.00;;
1370;SDS011;14306;49.942;11.570;2023-11-21T10:43:25;3.97;;;3.00;;
1370;SDS011;14306;49.942;11.570;2023-11-21T10:45:57;4.80;;;3.27;;
1370;SDS011;14306;49.942;11.570;2023-11-21T10:48:26;5.07;;;3.70;;
1370;SDS011;14306;49.942;11.570;2023-11-21T10:50:55;6.03;;;2.80;;
1370;SDS011;14306;49.942;11.570;2023-11-21T10:53:23;4.13;;;3.03;;
1370;SDS011;14306;49.942;11.570;2023-11-21T10:56:00;4.13;;;3.27;;
1370;SDS011;14306;49.942;11.570;2023-11-21T10:58:34;8.63;;;4.10;;
1370;SDS011;14306;49.942;11.570;2023-11-21T11:01:05;6.60;;;3.97;;
1370;SDS011;14306;49.942;11.570;2023-11-21T11:03:34;7.03;;;4.83;;
1370;SDS011;14306;49.942;11.570;2023-11-21T11:06:04;9.73;;;6.17;;
1370;SDS011;14306;49.942;11.570;2023-11-21T11:08:38;6.87;;;4.67;;
1370;SDS011;14306;49.942;11.570;2023-11-21T11:11:07;13.63;;;5.53;;
1370;SDS011;14306;49.942;11.570;2023-11-21T11:13:39;10.20;;;5.40;;
1370;SDS011;14306;49.942;11.570;2023-11-21T11:16:13;8.70;;;4.90;;
1370;SDS011;14306;49.942;11.570;2023-11-21T11:18:44;8.10;;;4.63;;
1370;SDS011;14306;49.942;11.570;2023-11-21T11:21:18;9.00;;;4.43;;
1370;SDS011;14306;49.942;11.570;2023-11-21T11:24:03;6.30;;;4.87;;
1370;SDS011;14306;49.942;11.570;2023-11-21T11:26:46;5.50;;;2.83;;
1370;SDS011;14306;49.942;11.570;2023-11-21T11:29:21;3.30;;;2.67;;
1370;SDS011;14306;49.942;11.570;2023-11-21T11:32:00;9.37;;;2.70;;
1370;SDS011;14306;49.942;11.570;2023-11-21T11:34:39;5.03;;;3.30;;
1370;SDS011;14306;49.942;11.570;2023-11-21T11:37:12;4.83;;;2.60;;
1370;SDS011;14306;49.942;11.570;2023-11-21T11:39:41;3.40;;;2.80;;
1370;SDS011;14306;49.942;11.570;2023-11-21T11:42:12;3.40;;;2.20;;
1370;SDS011;14306;49.942;11.570;2023-11-21T11:44:50;4.33;;;2.50;;
1370;SDS011;14306;49.942;11.570;2023-11-21T11:47:20;6.97;;;2.83;;
1370;SDS011;14306;49.942;11.570;2023-11-21T11:49:57;8.80;;;3.50;;
1370;SDS011;14306;49.942;11.570;2023-11-21T11:52:37;3.60;;;2.03;;
1370;SDS011;14306;49.942;11.570;2023-11-21T11:55:08;7.23;;;3.67;;
1370;SDS011;14306;49.942;11.570;2023-11-21T11:57:41;7.67;;;3.17;;
1370;SDS011;14306;49.942;11.570;2023-11-21T12:00:12;4.47;;;2.70;;
1370;SDS011;14306;49.942;11.570;2023-11-21T12:02:46;3.63;;;3.03;;
1370;SDS011;14306;49.942;11.570;2023-11-21T12:05:16;7.83;;;3.37;;
1370;SDS011;14306;49.942;11.570;2023-11-21T12:07:46;4.70;;;2.83;;
1370;SDS011;14306;49.942;11.570;2023-11-21T12:10:16;9.00;;;3.57;;
1370;SDS011;14306;49.942;11.570;2023-11-21T12:12:45;4.50;;;2.87;;
1370;SDS011;14306;49.942;11.570;2023-11-21T12:15:16;5.60;;;3.80;;
1370;SDS011;14306;49.942;11.570;2023-11-21T12:17:45;16.90;;;8.60;;
1370;SDS011;14306;49.942;11.570;2023-11-21T12:20:14;6.40;;;2.70;;
1370;SDS011;14306;49.942;11.570;2023-11-21T12:22:44;9.90;;;3.73;;
1370;SDS011;14306;49.942;11.570;2023-11-21T12:25:16;3.93;;;2.50;;
1370;SDS011;14306;49.942;11.570;2023-11-21T12:27:46;5.27;;;1.97;;
1370;SDS011;14306;49.942;11.570;2023-11-21T12:30:18;4.30;;;2.30;;
1370;SDS011;14306;49.942;11.570;2023-11-21T12:32:48;3.93;;;2.27;;
1370;SDS011;14306;49.942;11.570;2023-11-21T12:35:18;5.50;;;2.77;;
1370;SDS011;14306;49.942;11.570;2023-11-21T12:37:47;6.93;;;3.00;;
1370;SDS011;14306;49.942;11.570;2023-11-21T12:40:17;7.70;;;2.67;;
1370;SDS011;14306;49.942;11.570;2023-11-21T12:42:46;5.30;;;2.80;;
1370;SDS011;14306;49.942;11.570;2023-11-21T12:45:20;6.53;;;2.87;;
1370;SDS011;14306;49.942;11.570;2023-11-21T12:47:52;3.57;;;2.37;;
1370;SDS011;14306;49.942;11.570;2023-11-21T12:50:23;4.03;;;2.43;;
1370;SDS011;14306;49.942;11.570;2023-11-21T12:52:57;4.90;;;2.17;;
1370;SDS011;14306;49.942;11.570;2023-11-21T12:55:29;9.87;;;2.70;;
1370;SDS011;14306;49.942;11.570;2023-11-21T12:57:57;10.03;;;2.90;;
1370;SDS011;14306;49.942;11.570;2023-11-21T13:00:38;8.47;;;3.17;;
1370;SDS011;14306;49.942;11.570;2023-11-21T13:03:09;4.20;;;2.77;;
1370;SDS011;14306;49.942;11.570;2023-11-21T13:05:40;5.23;;;2.87;;
1370;SDS011;14306;49.942;11.570;2023-11-21T13:08:13;10.00;;;2.90;;
1370;SDS011;14306;49.942;11.570;2023-11-21T13:10:46;8.30;;;3.57;;
1370;SDS011;14306;49.942;11.570;2023-11-21T13:13:18;7.23;;;4.00;;
1370;SDS011;14306;49.942;11.570;2023-11-21T13:15:52;9.47;;;4.10;;
1370;SDS011;14306;49.942;11.570;2023-11-21T13:18:23;4.53;;;3.10;;
1370;SDS011;14306;49.942;11.570;2023-11-21T13:20:53;13.30;;;4.23;;
1370;SDS011;14306;49.942;11.570;2023-11-21T13:23:22;9.23;;;4.07;;
1370;SDS011;14306;49.942;11.570;2023-11-21T13:25:50;5.90;;;4.23;;
1370;SDS011;14306;49.942;11.570;2023-11-21T13:28:28;11.17;;;3.57;;
1370;SDS011;14306;49.942;11.570;2023-11-21T13:31:01;6.20;;;3.60;;
1370;SDS011;14306;49.942;11.570;2023-11-21T13:33:36;6.33;;;3.73;;
1370;SDS011;14306;49.942;11.570;2023-11-21T13:36:05;7.13;;;3.83;;
1370;SDS011;14306;49.942;11.570;2023-11-21T13:38:37;8.80;;;4.53;;
1370;SDS011;14306;49.942;11.570;2023-11-21T13:41:09;9.40;;;3.77;;
1370;SDS011;14306;49.942;11.570;2023-11-21T13:43:40;9.00;;;3.87;;
1370;SDS011;14306;49.942;11.570;2023-11-21T13:46:11;6.50;;;3.27;;
1370;SDS011;14306;49.942;11.570;2023-11-21T13:48:43;7.17;;;3.37;;
1370;SDS011;14306;49.942;11.570;2023-11-21T13:51:17;6.07;;;3.93;;
1370;SDS011;14306;49.942;11.570;2023-11-21T13:53:47;8.73;;;3.13;;
1370;SDS011;14306;49.942;11.570;2023-11-21T13:56:17;4.37;;;3.13;;
1370;SDS011;14306;49.942;11.570;2023-11-21T13:58:49;11.20;;;3.30;;
1370;SDS011;14306;49.942;11.570;2023-11-21T14:01:20;6.40;;;3.90;;
1370;SDS011;14306;49.942;11.570;2023-11-21T14:04:13;11.97;;;3.60;;
1370;SDS011;14306;49.942;11.570;2023-11-21T14:06:46;12.53;;;3.63;;
1370;SDS011;14306;49.942;11.570;2023-11-21T14:09:21;14.00;;;4.70;;
1370;SDS011;14306;49.942;11.570;2023-11-21T14:11:52;12.33;;;4.43;;
1370;SDS011;14306;49.942;11.570;2023-11-21T14:14:23;5.80;;;3.40;;
1370;SDS011;14306;49.942;11.570;2023-11-21T14:16:54;11.43;;;3.30;;
1370;SDS011;14306;49.942;11.570;2023-11-21T14:19:22;11.83;;;4.70;;
1370;SDS011;14306;49.942;11.570;2023-11-21T14:21:54;6.47;;;3.47;;
1370;SDS011;14306;49.942;11.570;2023-11-21T14:24:22;10.30;;;4.77;;
1370;SDS011;14306;49.942;11.570;2023-11-21T14:26:50;5.57;;;4.20;;
1370;SDS011;14306;49.942;11.570;2023-11-21T14:29:18;7.93;;;4.63;;
1370;SDS011;14306;49.942;11.570;2023-11-21T14:31:47;9.37;;;4.70;;
1370;SDS011;14306;49.942;11.570;2023-11-21T14:34:17;11.43;;;4.33;;
1370;SDS011;14306;49.942;11.570;2023-11-21T14:36:48;10.30;;;4.43;;
1370;SDS011;14306;49.942;11.570;2023-11-21T14:39:16;11.03;;;3.43;;
1370;SDS011;14306;49.942;11.570;2023-11-21T14:41:50;11.90;;;3.80;;
1370;SDS011;14306;49.942;11.570;2023-11-21T14:44:19;12.83;;;3.87;;
1370;SDS011;14306;49.942;11.570;2023-11-21T14:46:50;7.93;;;3.77;;
1370;SDS011;14306;49.942;11.570;2023-11-21T14:49:23;14.07;;;3.60;;
1370;SDS011;14306;49.942;11.570;2023-11-21T14:51:54;12.57;;;4.57;;
1370;SDS011;14306;49.942;11.570;2023-11-21T14:54:27;6.57;;;4.10;;
1370;SDS011;14306;49.942;11.570;2023-11-21T14:57:07;7.73;;;4.23;;
1370;SDS011;14306;49.942;11.570;2023-11-21T14:59:42;15.53;;;3.93;;
1370;SDS011;14306;49.942;11.570;2023-11-21T15:02:11;9.43;;;4.30;;